Flight Track Log - Related Links

Times and Time Zones

All times are in EST time to prevent confusion due to time zone crossing. See the N6630A flight status page for this flight to view local times or setup timezone preferences in your user account.

Time Position Orientation Groundspeed Altitude Reporting Facility
EST Latitude Longitude Course Direction KTS MPH feet Rate Location/Type
Sat 16:57:41 26.6483 -81.4144 North 191 220 5,500  Level Miami Center
Sat 16:58:00 26.8106 -81.6523 North  Level FlightAware Approximate
Sat 16:58:41 26.6889 -81.3881 30° Northeast 179 206 5,400  Level Miami Center
Sat 16:59:00 26.8565 -81.6449 North  Level FlightAware Approximate
Sat 16:59:41 26.7358 -81.3572 30° Northeast 169 194 5,400  Level Miami Center
Sat 17:00:00 26.9024 -81.6376 North  Level FlightAware Approximate
Sat 17:00:41 26.7761 -81.3308 30° Northeast 164 189 5,500  Level Miami Center
Sat 17:01:00 26.9483 -81.6303 North  Level FlightAware Approximate
Sat 17:01:41 26.8147 -81.2997 36° Northeast 170 196 5,400  Level Miami Center
Sat 17:02:00 26.9942 -81.6229 North  Level FlightAware Approximate
Sat 17:02:41 26.8556 -81.2664 36° Northeast 175 201 5,500  Level Miami Center
Sat 17:03:41 26.8939 -81.2353 36° Northeast 175 201 5,400 -50 Descending Miami Center
Sat 17:04:41 26.9325 -81.2042 36° Northeast 175 201 5,400  Level Miami Center
Sat 17:05:41 26.9711 -81.1706 38° Northeast 168 193 5,400 50 Level Miami Center
Sat 17:06:41 27.0094 -81.1394 36° Northeast 173 199 5,500  Climbing Miami Center
Sat 17:07:41 27.0481 -81.1036 40° Northeast 173 199 5,400  Descending Miami Center
Sat 17:08:41 27.0867 -81.0722 36° Northeast 173 199 5,500 50 Climbing Miami Center
Sat 17:09:41 27.1272 -81.0411 34° Northeast 173 199 5,500 -50 Level Miami Center
Sat 17:10:41 27.1614 -81.0119 37° Northeast 173 199 5,400  Descending Miami Center
Sat 17:11:41 27.1981 -80.9783 39° Northeast 173 199 5,500  Climbing Miami Center
Sat 17:12:41 27.2367 -80.9375 43° Northeast 173 199 5,400 -50 Descending Miami Center
Sat 17:13:41 27.2733 -80.8992 43° Northeast 168 193 5,400  Level Miami Center
Sat 17:14:41 27.3097 -80.8631 41° Northeast 173 199 5,400  Level Miami Center
Sat 17:15:41 27.3442 -80.8269 43° Northeast 173 199 5,400  Level Miami Center
Sat 17:16:41 27.3847 -80.7908 38° Northeast 173 199 5,400  Level Miami Center
Sat 17:17:41 27.4233 -80.7572 38° Northeast 173 199 5,400 50 Level Miami Center
Sat 17:18:41 27.4636 -80.7303 31° Northeast 168 193 5,500 50 Climbing Miami Center
Sat 17:19:41 27.5053 -80.7317 358° North 162 186 5,500 -50 Level Miami Center
Sat 17:20:41 27.5514 -80.7311 North 162 186 5,400  Descending Miami Center
Sat 17:21:41 27.5992 -80.7397 351° North 162 186 5,500  Climbing Miami Center
Sat 17:22:41 27.6447 -80.7481 351° North 162 186 5,400 -50 Descending Miami Center
Sat 17:23:41 27.6842 -80.7614 343° North 162 186 5,400 50 Level Miami Center
Sat 17:24:41 27.7256 -80.7744 344° North 157 181 5,500 50 Climbing Miami Center
Sat 17:25:41 27.7733 -80.7856 348° North 157 181 5,500  Level Miami Center
Sat 17:27:30 27.8500 -80.8000 351° North 158 182 5,500  Level Orlando TRACON
Sat 17:28:30 27.9000 -80.8167 344° North 162 186 5,500  Level Orlando TRACON
Sat 17:29:25 27.9333 -80.8167 360° North 162 186 5,500  Level Orlando TRACON
Sat 17:30:25 27.9833 -80.8167 360° North 161 185 5,500  Level Orlando TRACON
Sat 17:31:31 28.0333 -80.8333 344° North 162 186 5,500 -50 Level Orlando TRACON
Sat 17:32:25 28.0667 -80.8333 360° North 168 193 5,400 -53 Descending Orlando TRACON
Sat 17:33:25 28.1167 -80.8500 344° North 166 191 5,400 50 Level Orlando TRACON
Sat 17:34:25 28.1667 -80.8500 360° North 160 184 5,500 50 Climbing Orlando TRACON
Sat 17:35:26 28.2000 -80.8667 336° Northwest 158 182 5,500  Level Orlando TRACON
Sat 17:36:26 28.2500 -80.8667 360° North 157 181 5,500 -50 Level Orlando TRACON
Sat 17:37:26 28.3000 -80.8833 344° North 157 181 5,400 -53 Descending Orlando TRACON
Sat 17:38:20 28.3333 -80.8833 360° North 157 181 5,400  Level Orlando TRACON
Sat 17:39:20 28.3667 -80.8833 360° North 156 180 5,400 48 Level Orlando TRACON
Sat 17:40:26 28.4167 -80.9000 344° North 156 180 5,500  Climbing Orlando TRACON
Sat 17:41:27 28.4667 -80.8833 16° North 175 201 5,400  Descending Orlando TRACON
Sat 17:42:27 28.5167 -80.8667 16° North 172 198 5,500  Climbing Orlando TRACON
Sat 17:43:27 28.5500 -80.8500 24° Northeast 167 192 5,400  Descending Orlando TRACON
Sat 17:44:27 28.6000 -80.8500 360° North 155 178 5,500 48 Climbing Orlando TRACON
Sat 17:45:33 28.6500 -80.8500 360° North 155 178 5,500  Level Orlando TRACON
Sat 17:46:27 28.6833 -80.8667 336° Northwest 157 181 5,500  Level Orlando TRACON
Sat 17:47:33 28.7333 -80.8667 360° North 160 184 5,500 -29 Level Orlando TRACON
Sat 17:49:54 28.8356 -80.8875 350° North 153 176 5,400 -30 Descending Jacksonville Center
Sat 17:50:55 28.8794 -80.8983 348° North 154 177 5,400 52 Level Jacksonville Center
Sat 17:51:50 28.9131 -80.9167 334° Northwest 153 176 5,500  Climbing Jacksonville Center
Sat 17:52:51 28.9553 -80.9350 339° North 147 169 5,400 -344 Descending Jacksonville Center
Sat 17:53:52 28.9889 -80.9533 334° Northwest 148 170 4,800 -496 Descending Jacksonville Center
Sat 17:54:52 29.0289 -80.9761 334° Northwest 154 177 4,400 -189 Descending Jacksonville Center
Sat 17:55:59 29.0669 -81.0064 325° Northwest 137 158 4,400  Level Jacksonville Center
Sat 17:57:00 29.0964 -81.0294 326° Northwest 134 154 4,400  Level Jacksonville Center
Sat 17:58:01 29.1281 -81.0528 327° Northwest 133 153 4,400 -99 Level Jacksonville Center
Sat 17:59:01 29.1575 -81.0758 326° Northwest 144 166 4,200 -209 Descending Jacksonville Center
Sat 17:59:56 29.1892 -81.0967 330° Northwest 139 160 4,000 -491 Descending Jacksonville Center
Sat 18:00:51 29.2289 -81.0983 358° North 176 203 3,300 -496 Descending Jacksonville Center
Sat 18:01:57 29.2750 -81.1119 346° North 142 163 3,000 -378 Descending Jacksonville Center
Sat 18:02:58 29.3150 -81.1278 341° North 168 193 2,500 -492 Descending Jacksonville Center

Login

Don't have an account? Register now (free) for customized features, flight alerts, and more!